createdAt,value
2023-04-10T00:04:14.690Z,100871.81
2023-04-10T00:09:16.601Z,100865.13
2023-04-10T00:14:23.114Z,100868.41
2023-04-10T00:19:24.848Z,100862.28
2023-04-10T00:24:26.780Z,100851.03
2023-04-10T00:29:28.480Z,100856.06
2023-04-10T00:34:30.462Z,100853.41
2023-04-10T00:39:32.203Z,100858.59
2023-04-10T00:44:37.338Z,100852.59
2023-04-10T00:49:39.029Z,100849.94
2023-04-10T00:54:40.939Z,100851.53
2023-04-10T00:59:42.740Z,100846.53
2023-04-10T01:04:44.952Z,100852.28
2023-04-10T01:10:19.182Z,100854.72
2023-04-10T01:15:23.773Z,100852.06
2023-04-10T01:20:30.004Z,100855.69
2023-04-10T01:25:56.555Z,100862.47
2023-04-10T01:31:01.383Z,100872.00
2023-04-10T01:36:06.371Z,100870.22
2023-04-10T01:41:08.451Z,100867.75
2023-04-10T01:46:12.592Z,100870.06
2023-04-10T01:51:16.158Z,100854.78
2023-04-10T01:56:18.093Z,100851.16
2023-04-10T02:01:29.857Z,100848.44
2023-04-10T02:06:44.957Z,100847.34
2023-04-10T02:11:58.793Z,100847.41
2023-04-10T02:17:04.220Z,100842.38
2023-04-10T02:22:06.301Z,100843.28
2023-04-10T02:27:08.411Z,100842.94
2023-04-10T02:32:10.739Z,100835.97
2023-04-10T02:37:13.919Z,100834.22
2023-04-10T02:42:16.154Z,100835.84
2023-04-10T02:47:18.801Z,100832.25
2023-04-10T02:52:22.187Z,100827.13
2023-04-10T02:57:23.890Z,100824.56
2023-04-10T03:02:26.577Z,100834.44
2023-04-10T03:07:30.255Z,100835.00
2023-04-10T03:12:31.949Z,100835.03
2023-04-10T03:17:33.885Z,100839.41
2023-04-10T03:22:36.552Z,100839.94
2023-04-10T03:27:39.064Z,100832.13
2023-04-10T03:32:43.088Z,100835.72
2023-04-10T03:37:44.960Z,100840.13
2023-04-10T03:42:46.597Z,100847.16
2023-04-10T03:47:49.188Z,100837.91
2023-04-10T03:52:52.290Z,100833.66
2023-04-10T03:57:56.463Z,100849.94
2023-04-10T04:03:03.228Z,100849.03
2023-04-10T04:08:30.176Z,100851.69
2023-04-10T04:13:39.670Z,100858.88
2023-04-10T04:18:45.494Z,100862.25
2023-04-10T04:24:02.015Z,100853.25
2023-04-10T04:29:22.598Z,100865.25
2023-04-10T04:34:38.108Z,100868.66
2023-04-10T04:40:00.201Z,100874.25
2023-04-10T04:45:21.826Z,100870.56
2023-04-10T04:50:45.798Z,100864.47
2023-04-10T04:55:51.430Z,100866.25
2023-04-10T05:01:31.785Z,100872.47
2023-04-10T05:06:52.094Z,100870.00
2023-04-10T05:12:25.052Z,100868.56
2023-04-10T05:17:35.526Z,100863.22
2023-04-10T05:22:53.097Z,100873.56
2023-04-10T05:28:09.876Z,100879.81
2023-04-10T05:33:30.028Z,100880.97
2023-04-10T05:38:42.979Z,100884.56
2023-04-10T05:44:09.509Z,100889.00
2023-04-10T05:49:37.395Z,100883.03
2023-04-10T05:54:57.408Z,100882.22
2023-04-10T06:00:08.389Z,100879.72
2023-04-10T06:05:16.018Z,100877.38
2023-04-10T06:10:18.368Z,100877.44
2023-04-10T06:15:20.569Z,100876.31
2023-04-10T06:20:22.798Z,100881.06
2023-04-10T06:25:25.694Z,100879.84
2023-04-10T06:30:27.460Z,100868.25
2023-04-10T06:35:29.369Z,100861.31
2023-04-10T06:40:31.721Z,100866.25
2023-04-10T06:45:33.388Z,100864.75
2023-04-10T06:50:35.200Z,100880.38
2023-04-10T06:55:37.593Z,100870.13
2023-04-10T07:00:39.476Z,100860.66
2023-04-10T07:05:42.333Z,100862.25
2023-04-10T07:10:44.360Z,100853.91
2023-04-10T07:15:46.129Z,100857.50
2023-04-10T07:20:48.586Z,100854.63
2023-04-10T07:25:52.173Z,100859.84
2023-04-10T07:30:53.952Z,100842.72
2023-04-10T07:35:55.623Z,100837.66
2023-04-10T07:40:58.461Z,100844.22
2023-04-10T07:46:00.291Z,100842.34
2023-04-10T07:51:02.703Z,100835.59
2023-04-10T07:56:04.989Z,100830.78
2023-04-10T08:01:06.985Z,100831.34
2023-04-10T08:06:10.325Z,100831.66
2023-04-10T08:11:27.711Z,100828.50
2023-04-10T08:16:31.308Z,100827.25
2023-04-10T08:21:33.161Z,100825.59
2023-04-10T08:26:35.090Z,100818.69
2023-04-10T08:31:37.046Z,100813.44
2023-04-10T08:36:38.988Z,100810.09
2023-04-10T08:41:41.430Z,100802.06
2023-04-10T08:46:44.615Z,100800.84
2023-04-10T08:51:56.905Z,100801.38
2023-04-10T08:57:00.965Z,100787.06
2023-04-10T09:02:03.564Z,100790.94
2023-04-10T09:07:05.675Z,100781.97
2023-04-10T09:12:07.539Z,100779.22
2023-04-10T09:17:18.028Z,100767.03
2023-04-10T09:22:31.515Z,100765.56
2023-04-10T09:27:38.546Z,100768.75
2023-04-10T09:32:46.769Z,100767.34
2023-04-10T09:37:48.686Z,100754.63
2023-04-10T09:42:50.907Z,100750.81
2023-04-10T09:48:04.077Z,100741.47
2023-04-10T09:53:05.868Z,100726.63
2023-04-10T09:58:08.227Z,100718.31
2023-04-10T10:03:14.885Z,100717.38
2023-04-10T10:08:17.387Z,100717.91
2023-04-10T10:13:26.885Z,100709.38
2023-04-10T10:18:50.854Z,100697.75
2023-04-10T10:23:55.106Z,100683.72
2023-04-10T10:28:58.950Z,100677.63
2023-04-10T10:34:09.330Z,100669.69
2023-04-10T10:39:33.239Z,100663.97
2023-04-10T10:44:57.639Z,100662.47
2023-04-10T10:50:02.534Z,100651.28
2023-04-10T10:55:25.746Z,100645.50
2023-04-10T11:00:50.355Z,100642.44
2023-04-10T11:05:54.309Z,100628.50
2023-04-10T11:11:01.620Z,100618.19
2023-04-10T11:16:05.517Z,100606.22
2023-04-10T11:21:12.452Z,100591.47
2023-04-10T11:26:14.119Z,100585.41
2023-04-10T11:31:18.481Z,100582.19
2023-04-10T11:36:20.516Z,100571.81
2023-04-10T11:41:28.471Z,100564.00
2023-04-10T11:46:31.037Z,100553.00
2023-04-10T11:51:33.819Z,100552.13
2023-04-10T11:56:36.647Z,100546.31
2023-04-10T12:01:42.491Z,100539.75
2023-04-10T12:06:45.788Z,100533.06
2023-04-10T12:12:07.738Z,100530.47
2023-04-10T12:17:11.598Z,100514.38
2023-04-10T12:22:13.497Z,100527.41
2023-04-10T12:27:28.681Z,100514.34
2023-04-10T12:32:30.775Z,100506.81
2023-04-10T12:37:54.593Z,100501.03
2023-04-10T12:42:56.347Z,100493.34
2023-04-10T12:47:57.986Z,100497.09
2023-04-10T12:53:09.105Z,100493.44
2023-04-10T12:58:20.605Z,100487.50
2023-04-10T13:03:22.503Z,100480.38
2023-04-10T13:08:24.368Z,100471.38
2023-04-10T13:13:26.005Z,100465.94
2023-04-10T13:18:27.727Z,100469.00
2023-04-10T13:23:29.450Z,100460.81
2023-04-10T13:28:31.184Z,100448.88
2023-04-10T13:33:32.895Z,100442.56
2023-04-10T13:38:34.520Z,100433.66
2023-04-10T13:43:36.797Z,100426.47
2023-04-10T13:48:41.371Z,100416.38
2023-04-10T13:53:43.229Z,100407.56
2023-04-10T13:58:46.330Z,100408.78
2023-04-10T14:03:48.293Z,100395.91
2023-04-10T14:08:50.100Z,100390.38
2023-04-10T14:13:51.799Z,100379.63
2023-04-10T14:18:54.381Z,100371.66
2023-04-10T14:23:56.221Z,100366.53
2023-04-10T14:28:57.825Z,100366.53
2023-04-10T14:34:02.441Z,100351.41
2023-04-10T14:39:04.221Z,100357.44
2023-04-10T14:44:05.961Z,100343.88
2023-04-10T14:49:07.629Z,100342.56
2023-04-10T14:54:09.326Z,100337.16
2023-04-10T14:59:11.565Z,100325.03
2023-04-10T15:04:16.118Z,100326.34
2023-04-10T15:09:20.730Z,100310.19
2023-04-10T15:14:23.726Z,100306.41
2023-04-10T15:19:26.082Z,100288.56
2023-04-10T15:24:29.133Z,100280.56
2023-04-10T15:29:38.478Z,100277.50
2023-04-10T15:34:40.223Z,100280.13
2023-04-10T15:39:42.181Z,100263.75
2023-04-10T15:44:48.939Z,100249.25
2023-04-10T15:49:50.940Z,100253.31
2023-04-10T15:54:52.920Z,100253.16
2023-04-10T15:59:56.640Z,100237.28
2023-04-10T16:04:58.450Z,100233.06
2023-04-10T16:10:00.705Z,100231.22
2023-04-10T16:15:04.414Z,100214.19
2023-04-10T16:20:07.159Z,100210.19
2023-04-10T16:25:09.282Z,100213.78
2023-04-10T16:30:11.860Z,100206.47
2023-04-10T16:35:13.582Z,100202.91
2023-04-10T16:40:15.338Z,100193.31
2023-04-10T16:45:17.373Z,100187.88
2023-04-10T16:50:19.287Z,100190.66
2023-04-10T16:55:21.082Z,100172.78
2023-04-10T17:00:22.786Z,100170.56
2023-04-10T17:05:24.530Z,100165.19
2023-04-10T17:10:27.691Z,100160.13
2023-04-10T17:15:29.436Z,100153.53
2023-04-10T17:20:36.134Z,100147.59
2023-04-10T17:25:44.908Z,100147.34
2023-04-10T17:30:48.472Z,100144.13
2023-04-10T17:35:52.092Z,100142.84
2023-04-10T17:40:53.936Z,100142.50
2023-04-10T17:45:55.760Z,100134.50
2023-04-10T17:50:58.030Z,100135.72
2023-04-10T17:56:00.200Z,100133.13
2023-04-10T18:01:02.051Z,100126.69
2023-04-10T18:06:04.332Z,100107.13
2023-04-10T18:11:06.241Z,100109.19
2023-04-10T18:16:08.683Z,100117.91
2023-04-10T18:21:13.789Z,100107.72
2023-04-10T18:26:15.595Z,100118.41
2023-04-10T18:31:19.002Z,100097.16
2023-04-10T18:36:21.548Z,100090.59
2023-04-10T18:41:23.508Z,100096.97
2023-04-10T18:46:28.019Z,100088.56
2023-04-10T18:51:29.842Z,100077.41
2023-04-10T18:56:32.208Z,100074.94
2023-04-10T19:01:34.066Z,100072.63
2023-04-10T19:06:38.012Z,100072.03
2023-04-10T19:11:40.346Z,100056.41
2023-04-10T19:16:41.991Z,100056.84
2023-04-10T19:21:43.786Z,100047.31
2023-04-10T19:26:45.529Z,100042.38
2023-04-10T19:31:47.275Z,100031.91
2023-04-10T19:36:48.961Z,100023.72
2023-04-10T19:41:50.673Z,100018.06
2023-04-10T19:46:52.443Z,100006.28
2023-04-10T19:51:54.305Z,100011.75
2023-04-10T19:56:59.296Z,100019.44
2023-04-10T20:02:01.069Z,100006.41
2023-04-10T20:07:02.855Z,100008.50
2023-04-10T20:12:04.880Z,100000.94
2023-04-10T20:17:06.625Z,100000.81
2023-04-10T20:22:08.965Z,99985.97
2023-04-10T20:27:10.691Z,99978.28
2023-04-10T20:32:12.304Z,99955.34
2023-04-10T20:37:18.619Z,99946.00
2023-04-10T20:42:20.256Z,99938.75
2023-04-10T20:47:21.916Z,99937.16
2023-04-10T20:52:23.546Z,99928.31
2023-04-10T20:57:25.409Z,99925.91
2023-04-10T21:02:27.223Z,99918.69
2023-04-10T21:07:29.000Z,99918.28
2023-04-10T21:12:31.231Z,99914.94
2023-04-10T21:17:33.057Z,99918.28
2023-04-10T21:22:34.775Z,99917.06
2023-04-10T21:27:36.583Z,99917.47
2023-04-10T21:32:38.404Z,99909.22
2023-04-10T21:37:40.234Z,99893.63
2023-04-10T21:42:41.897Z,99884.25
2023-04-10T21:47:43.698Z,99885.00
2023-04-10T21:52:45.455Z,99865.22
2023-04-10T21:57:47.141Z,99868.38
2023-04-10T22:02:52.698Z,99862.06
2023-04-10T22:07:55.197Z,99864.97
2023-04-10T22:12:56.850Z,99858.16
2023-04-10T22:17:58.544Z,99848.44
2023-04-10T22:23:00.167Z,99841.91
2023-04-10T22:28:01.922Z,99831.41
2023-04-10T22:33:03.688Z,99826.38
2023-04-10T22:38:05.526Z,99830.69
2023-04-10T22:43:07.189Z,99805.59
2023-04-10T22:48:08.864Z,99806.81
2023-04-10T22:53:11.976Z,99800.47
2023-04-10T22:58:13.758Z,99785.84
2023-04-10T23:03:15.459Z,99769.44
2023-04-10T23:08:17.466Z,99766.66
2023-04-10T23:13:19.118Z,99763.94
2023-04-10T23:18:21.110Z,99758.72
2023-04-10T23:23:22.857Z,99749.59
2023-04-10T23:28:25.409Z,99735.00
2023-04-10T23:33:27.174Z,99735.84
2023-04-10T23:38:28.963Z,99718.28
2023-04-10T23:43:30.686Z,99700.25
2023-04-10T23:48:32.327Z,99699.75
2023-04-10T23:53:34.717Z,99690.22
2023-04-10T23:58:37.527Z,99670.38
